createdAt,value
2018-04-12T00:00:37.004Z,78.47
2018-04-12T00:03:07.100Z,78.14
2018-04-12T00:05:35.224Z,77.81
2018-04-12T00:08:03.303Z,77.83
2018-04-12T00:10:32.031Z,77.85
2018-04-12T00:13:00.248Z,77.89
2018-04-12T00:15:28.392Z,77.66
2018-04-12T00:17:56.493Z,77.49
2018-04-12T00:20:24.651Z,77.49
2018-04-12T00:22:52.751Z,77.33
2018-04-12T00:25:20.848Z,77.40
2018-04-12T00:27:49.616Z,77.54
2018-04-12T00:30:17.947Z,77.62
2018-04-12T00:32:46.627Z,77.45
2018-04-12T00:35:14.715Z,77.71
2018-04-12T00:37:42.803Z,77.98
2018-04-12T00:40:11.701Z,77.92
2018-04-12T00:42:39.811Z,78.00
2018-04-12T00:45:07.908Z,78.11
2018-04-12T00:47:36.327Z,78.03
2018-04-12T00:50:04.651Z,78.38
2018-04-12T00:52:37.681Z,78.68
2018-04-12T00:55:05.797Z,78.83
2018-04-12T00:57:35.679Z,78.95
2018-04-12T01:00:03.799Z,79.07
2018-04-12T01:02:32.327Z,79.33
2018-04-12T01:05:00.433Z,79.31
2018-04-12T01:07:29.311Z,78.62
2018-04-12T01:09:58.281Z,78.48
2018-04-12T01:12:27.298Z,78.10
2018-04-12T01:14:57.120Z,77.38
2018-04-12T01:17:25.940Z,77.03
2018-04-12T01:19:54.931Z,76.03
2018-04-12T01:22:23.823Z,76.02
2018-04-12T01:24:51.913Z,76.40
2018-04-12T01:27:20.220Z,76.20
2018-04-12T01:29:48.303Z,75.93
2018-04-12T01:32:16.430Z,75.48
2018-04-12T01:34:44.534Z,75.45
2018-04-12T01:37:12.697Z,75.82
2018-04-12T01:39:41.470Z,75.56
2018-04-12T01:42:09.554Z,75.80
2018-04-12T01:44:38.512Z,75.24
2018-04-12T01:47:07.396Z,75.05
2018-04-12T01:49:35.642Z,75.25
2018-04-12T01:52:04.132Z,74.94
2018-04-12T01:54:32.246Z,74.91
2018-04-12T01:57:01.482Z,75.21
2018-04-12T01:59:29.697Z,75.86
2018-04-12T02:01:58.054Z,75.85
2018-04-12T02:04:26.266Z,75.88
2018-04-12T02:06:54.866Z,75.54
2018-04-12T02:09:22.992Z,75.85
2018-04-12T02:11:51.146Z,76.18
2018-04-12T02:14:19.243Z,76.07
2018-04-12T02:16:47.461Z,76.02
2018-04-12T02:19:16.776Z,75.83
2018-04-12T02:21:44.879Z,75.94
2018-04-12T02:24:12.996Z,75.79
2018-04-12T02:26:41.111Z,75.60
2018-04-12T02:29:09.195Z,75.76
2018-04-12T02:31:37.319Z,75.71
2018-04-12T02:34:05.415Z,75.76
2018-04-12T02:36:39.303Z,75.49
2018-04-12T02:39:07.386Z,76.17
2018-04-12T02:41:35.503Z,76.11
2018-04-12T02:44:03.651Z,76.05
2018-04-12T02:46:32.459Z,76.75
2018-04-12T02:49:00.567Z,76.32
2018-04-12T02:51:28.739Z,76.55
2018-04-12T02:53:56.854Z,76.67
2018-04-12T02:56:24.912Z,76.91
2018-04-12T02:58:53.895Z,77.12
2018-04-12T03:01:21.982Z,76.88
2018-04-12T03:03:50.414Z,76.61
2018-04-12T03:16:04.420Z,77.04
2018-04-12T03:18:32.560Z,76.91
2018-04-12T03:21:02.679Z,76.70
2018-04-12T03:23:30.774Z,76.68
2018-04-12T03:25:58.881Z,76.77
2018-04-12T03:41:28.067Z,77.35
2018-04-12T03:43:58.007Z,77.24
2018-04-12T03:46:27.330Z,77.20
2018-04-12T03:48:55.423Z,77.29
2018-04-12T03:51:23.775Z,76.75
2018-04-12T03:53:51.847Z,76.58
2018-04-12T03:56:19.955Z,76.59
2018-04-12T03:58:48.861Z,77.30
2018-04-12T04:01:16.967Z,77.32
2018-04-12T04:03:45.052Z,76.69
2018-04-12T04:06:13.157Z,76.99
2018-04-12T04:08:41.534Z,76.71
2018-04-12T04:11:09.612Z,76.74
2018-04-12T04:13:38.341Z,76.86
2018-04-12T04:16:19.320Z,77.03
2018-04-12T04:18:59.125Z,76.63
2018-04-12T04:21:27.226Z,76.43
2018-04-12T04:23:56.949Z,76.50
2018-04-12T04:26:25.380Z,76.67
2018-04-12T04:28:53.444Z,76.68
2018-04-12T04:31:21.554Z,76.97
2018-04-12T04:33:51.378Z,76.87
2018-04-12T04:38:51.476Z,76.81
2018-04-12T04:41:20.303Z,77.41
2018-04-12T04:43:48.534Z,77.52
2018-04-12T04:46:16.626Z,77.48
2018-04-12T04:48:45.061Z,77.82
2018-04-12T04:51:13.430Z,77.92
2018-04-12T04:53:41.532Z,77.58
2018-04-12T04:56:09.635Z,77.65
2018-04-12T04:58:37.752Z,77.99
2018-04-12T05:01:05.843Z,78.44
2018-04-12T05:03:33.990Z,77.56
2018-04-12T05:06:03.310Z,77.94
2018-04-12T05:08:31.754Z,77.96
2018-04-12T05:11:00.719Z,77.86
2018-04-12T05:13:29.132Z,77.44
2018-04-12T05:15:57.318Z,77.79
2018-04-12T05:18:26.503Z,77.87
2018-04-12T05:20:54.556Z,78.37
2018-04-12T05:23:22.679Z,78.22
2018-04-12T05:25:50.835Z,78.18
2018-04-12T05:41:18.955Z,78.56
2018-04-12T05:43:47.405Z,78.85
2018-04-12T05:46:15.512Z,78.62
2018-04-12T05:48:43.895Z,78.15
2018-04-12T05:51:12.516Z,77.96
2018-04-12T05:53:41.467Z,78.32
2018-04-12T05:56:09.579Z,78.36
2018-04-12T05:58:37.911Z,78.19
2018-04-12T06:01:07.647Z,78.32
2018-04-12T06:03:35.742Z,78.09
2018-04-12T06:06:03.855Z,78.08
2018-04-12T06:08:32.819Z,78.22
2018-04-12T06:11:00.992Z,78.47
2018-04-12T06:13:29.731Z,78.59
2018-04-12T06:28:57.862Z,79.01
2018-04-12T06:31:26.958Z,78.62
2018-04-12T06:33:55.100Z,78.62
2018-04-12T06:36:23.247Z,78.73
2018-04-12T06:38:51.615Z,78.25
2018-04-12T06:41:19.744Z,78.15
2018-04-12T06:43:48.134Z,77.97
2018-04-12T06:46:16.259Z,78.35
2018-04-12T06:48:44.400Z,78.23
2018-04-12T07:04:12.528Z,78.90
2018-04-12T07:06:45.957Z,79.14
2018-04-12T07:09:14.089Z,79.12
2018-04-12T07:11:42.196Z,79.10
2018-04-12T07:14:10.321Z,79.39
2018-04-12T07:16:38.444Z,79.28
2018-04-12T07:19:06.546Z,79.03
2018-04-12T07:21:34.640Z,79.32
2018-04-12T07:24:02.759Z,79.27
2018-04-12T07:29:01.715Z,79.07
2018-04-12T07:31:29.844Z,78.85
2018-04-12T07:33:57.939Z,78.60
2018-04-12T07:36:27.030Z,78.60
2018-04-12T07:38:55.128Z,78.67
2018-04-12T07:41:23.221Z,78.91
2018-04-12T07:43:51.356Z,78.73
2018-04-12T07:46:19.429Z,79.29
2018-04-12T07:48:47.564Z,79.12
2018-04-12T07:51:15.684Z,78.99
2018-04-12T07:53:44.114Z,78.79
2018-04-12T07:56:13.338Z,79.43
2018-04-12T07:58:41.758Z,79.49
2018-04-12T08:01:09.866Z,79.87
2018-04-12T08:03:38.413Z,79.86
2018-04-12T08:06:06.505Z,79.97
2018-04-12T08:08:34.609Z,79.73
2018-04-12T08:11:03.082Z,79.97
2018-04-12T08:13:31.173Z,79.96
2018-04-12T08:15:59.259Z,79.71
2018-04-12T08:18:27.369Z,80.29
2018-04-12T08:20:55.465Z,80.30
2018-04-12T08:23:23.563Z,80.24
2018-04-12T08:25:51.667Z,79.97
2018-04-12T08:28:20.091Z,80.18
2018-04-12T08:30:48.215Z,80.12
2018-04-12T08:33:16.323Z,80.39
2018-04-12T08:35:44.425Z,80.35
2018-04-12T08:38:12.539Z,80.51
2018-04-12T08:40:40.717Z,80.25
2018-04-12T08:43:08.829Z,80.26
2018-04-12T08:45:36.923Z,80.21
2018-04-12T08:48:05.015Z,80.24
2018-04-12T08:50:33.158Z,79.95
2018-04-12T08:53:01.269Z,79.75
2018-04-12T08:55:29.367Z,79.36
2018-04-12T08:57:58.214Z,79.13
2018-04-12T09:00:26.330Z,79.63
2018-04-12T09:02:54.412Z,79.91
2018-04-12T09:05:22.538Z,79.92
2018-04-12T09:07:50.620Z,79.67
2018-04-12T09:10:18.742Z,79.70
2018-04-12T09:12:46.862Z,79.68
2018-04-12T09:15:15.905Z,79.68
2018-04-12T09:17:44.053Z,79.89
2018-04-12T09:20:12.266Z,79.92
2018-04-12T09:22:41.110Z,79.72
2018-04-12T09:25:09.236Z,79.28
2018-04-12T09:27:37.326Z,79.24
2018-04-12T09:30:06.420Z,79.02
2018-04-12T09:32:35.453Z,78.89
2018-04-12T09:35:03.577Z,78.87
2018-04-12T09:37:32.594Z,78.96
2018-04-12T09:40:00.712Z,78.83
2018-04-12T09:42:29.540Z,78.82
2018-04-12T09:44:57.633Z,78.65
2018-04-12T09:47:25.728Z,78.53
2018-04-12T09:49:54.074Z,78.57
2018-04-12T09:52:22.167Z,78.66
2018-04-12T09:54:51.159Z,78.48
2018-04-12T09:57:19.574Z,78.86
2018-04-12T09:59:47.695Z,79.33
2018-04-12T10:15:15.801Z,79.80
2018-04-12T10:17:44.200Z,79.75
2018-04-12T10:20:12.279Z,79.58
2018-04-12T10:22:40.399Z,79.65
2018-04-12T10:25:08.515Z,79.74
2018-04-12T10:27:36.618Z,79.34
2018-04-12T10:30:04.690Z,79.28
2018-04-12T10:32:32.854Z,79.10
2018-04-12T10:35:00.950Z,79.31
2018-04-12T10:37:29.045Z,79.00
2018-04-12T10:39:57.891Z,78.98
2018-04-12T10:42:27.333Z,78.72
2018-04-12T10:44:55.440Z,78.57
2018-04-12T10:47:23.800Z,78.70
2018-04-12T10:49:51.887Z,78.63
2018-04-12T10:52:20.970Z,78.46
2018-04-12T10:54:49.087Z,78.21
2018-04-12T10:57:18.193Z,78.21
2018-04-12T10:59:46.308Z,78.43
2018-04-12T11:02:14.666Z,78.12
2018-04-12T11:04:42.760Z,77.98
2018-04-12T11:07:11.513Z,77.84
2018-04-12T11:09:39.623Z,77.62
2018-04-12T11:12:07.745Z,77.63
2018-04-12T11:14:35.836Z,77.30
2018-04-12T11:17:03.956Z,77.21
2018-04-12T11:19:32.860Z,77.20
2018-04-12T11:22:01.904Z,77.33
2018-04-12T11:24:30.095Z,77.21
2018-04-12T11:26:58.486Z,77.27
2018-04-12T11:29:27.170Z,76.92
2018-04-12T11:31:55.260Z,76.71
2018-04-12T11:34:23.389Z,76.46
2018-04-12T11:36:52.254Z,76.61
2018-04-12T11:39:20.351Z,76.69
2018-04-12T11:41:49.218Z,76.34
2018-04-12T11:44:17.347Z,76.14
2018-04-12T11:46:45.493Z,76.16
2018-04-12T11:49:14.168Z,76.10
2018-04-12T11:51:42.397Z,76.05
2018-04-12T11:54:10.497Z,76.01
2018-04-12T11:56:38.610Z,75.92
2018-04-12T11:59:07.188Z,75.89
2018-04-12T12:01:35.361Z,75.64
2018-04-12T12:04:03.548Z,75.63
2018-04-12T12:06:31.655Z,75.73
2018-04-12T12:08:59.787Z,75.51
2018-04-12T12:11:27.883Z,75.43
2018-04-12T12:13:56.029Z,75.19
2018-04-12T12:16:24.187Z,75.08
2018-04-12T12:18:52.290Z,75.10
2018-04-12T12:21:20.390Z,74.89
2018-04-12T12:23:48.626Z,75.04
2018-04-12T12:26:16.649Z,75.07
2018-04-12T12:28:44.803Z,75.00
2018-04-12T12:31:12.944Z,75.02
2018-04-12T12:33:41.439Z,74.75
2018-04-12T12:36:09.555Z,74.90
2018-04-12T12:38:38.451Z,75.17
2018-04-12T12:41:06.639Z,75.47
2018-04-12T12:43:34.784Z,76.21
2018-04-12T12:46:02.894Z,76.99
2018-04-12T12:48:31.579Z,78.00
2018-04-12T12:50:59.704Z,78.79
2018-04-12T12:53:28.410Z,79.03
2018-04-12T12:55:56.522Z,79.19
2018-04-12T12:58:25.947Z,79.50
2018-04-12T13:00:54.047Z,79.87
2018-04-12T13:03:22.151Z,79.73
2018-04-12T13:05:50.273Z,80.05
2018-04-12T13:08:18.369Z,80.23
2018-04-12T13:10:47.470Z,80.49
2018-04-12T13:13:15.589Z,80.47
2018-04-12T13:28:43.726Z,82.05
2018-04-12T13:31:11.840Z,82.32
2018-04-12T13:33:40.549Z,82.20
2018-04-12T13:36:08.639Z,82.11
2018-04-12T13:38:36.760Z,81.81
2018-04-12T13:41:04.954Z,81.65
2018-04-12T13:43:33.044Z,81.47
2018-04-12T13:46:01.509Z,81.60
2018-04-12T13:48:29.605Z,81.50
2018-04-12T13:50:57.701Z,81.42
2018-04-12T13:53:26.399Z,81.34
2018-04-12T13:55:54.524Z,81.18
2018-04-12T13:58:23.182Z,81.31
2018-04-12T14:00:52.164Z,81.01
2018-04-12T14:03:20.268Z,81.05
2018-04-12T14:05:50.112Z,81.72
2018-04-12T14:08:18.596Z,82.19
2018-04-12T14:10:47.020Z,82.77
2018-04-12T14:13:15.094Z,82.99
2018-04-12T14:15:43.872Z,83.06
2018-04-12T14:18:11.963Z,83.05
2018-04-12T14:20:40.570Z,83.04
2018-04-12T14:23:08.647Z,83.10
2018-04-12T14:25:36.741Z,83.23
2018-04-12T14:28:04.864Z,83.50
2018-04-12T14:30:33.973Z,83.66
2018-04-12T14:33:02.098Z,83.66
2018-04-12T14:35:30.172Z,83.12
2018-04-12T14:37:58.375Z,83.49
2018-04-12T14:40:26.474Z,83.87
2018-04-12T14:42:54.572Z,83.45
2018-04-12T14:45:23.636Z,83.23
2018-04-12T14:47:51.734Z,83.33
2018-04-12T14:50:19.835Z,83.54
2018-04-12T14:52:47.983Z,83.72
2018-04-12T14:55:16.071Z,83.38
2018-04-12T14:57:44.168Z,83.80
2018-04-12T15:00:13.471Z,83.25
2018-04-12T15:02:41.588Z,82.84
2018-04-12T15:05:09.685Z,81.93
2018-04-12T15:07:37.790Z,81.78
2018-04-12T15:10:06.117Z,81.71
2018-04-12T15:25:34.256Z,80.53
2018-04-12T15:28:02.352Z,80.53
2018-04-12T15:30:30.499Z,80.42
2018-04-12T15:33:04.066Z,79.98
2018-04-12T15:35:37.753Z,79.71
2018-04-12T15:38:11.408Z,78.80
2018-04-12T15:40:44.896Z,78.36
2018-04-12T15:43:18.476Z,78.53
2018-04-12T15:45:52.526Z,78.13
2018-04-12T15:48:26.354Z,78.37
2018-04-12T15:51:00.069Z,78.45
2018-04-12T15:53:33.980Z,78.22
2018-04-12T15:56:07.583Z,78.08
2018-04-12T15:58:41.100Z,78.12
2018-04-12T16:01:14.795Z,77.79
2018-04-12T16:03:48.347Z,78.12
2018-04-12T16:16:07.611Z,78.27
2018-04-12T16:18:41.409Z,78.05
2018-04-12T16:21:15.924Z,78.33
2018-04-12T16:23:50.385Z,78.38
2018-04-12T16:26:24.171Z,78.45
2018-04-12T16:28:57.899Z,78.15
2018-04-12T16:31:32.212Z,78.22
2018-04-12T16:34:05.743Z,78.29
2018-04-12T16:36:40.142Z,78.05
2018-04-12T16:39:13.683Z,77.94
2018-04-12T16:41:48.176Z,77.79
2018-04-12T16:44:21.896Z,77.86
2018-04-12T16:46:55.463Z,77.57
2018-04-12T16:49:29.074Z,77.69
2018-04-12T16:52:02.679Z,77.70
2018-04-12T16:54:36.386Z,77.30
2018-04-12T16:57:09.999Z,77.36
2018-04-12T16:59:43.559Z,77.30
2018-04-12T17:02:18.038Z,77.29
2018-04-12T17:04:52.085Z,77.19
2018-04-12T17:07:25.826Z,76.49
2018-04-12T17:09:59.459Z,76.33
2018-04-12T17:12:33.421Z,76.09
2018-04-12T17:15:07.336Z,76.08
2018-04-12T17:17:40.927Z,76.21
2018-04-12T17:20:14.466Z,76.14
2018-04-12T17:22:48.320Z,76.11
2018-04-12T17:25:21.804Z,75.99
2018-04-12T17:27:55.464Z,76.07
2018-04-12T17:30:29.091Z,75.97
2018-04-12T17:33:02.736Z,75.93
2018-04-12T17:35:36.319Z,75.94
2018-04-12T17:38:10.281Z,76.03
2018-04-12T17:40:44.711Z,76.35
2018-04-12T17:43:18.845Z,76.49
2018-04-12T17:45:52.487Z,76.70
2018-04-12T17:48:25.961Z,76.62
2018-04-12T17:50:59.497Z,76.45
2018-04-12T17:53:33.235Z,76.37
2018-04-12T17:56:07.028Z,76.66
2018-04-12T17:58:40.975Z,77.10
2018-04-12T18:01:14.713Z,76.96
2018-04-12T18:03:48.322Z,77.12
2018-04-12T18:06:23.375Z,77.04
2018-04-12T18:08:57.435Z,76.87
2018-04-12T18:11:31.645Z,76.57
2018-04-12T18:14:05.575Z,76.19
2018-04-12T18:16:39.797Z,75.62
2018-04-12T18:19:13.381Z,75.21
2018-04-12T18:21:47.767Z,75.29
2018-04-12T18:24:22.496Z,74.92
2018-04-12T18:26:56.336Z,74.55
2018-04-12T18:29:29.839Z,74.65
2018-04-12T18:32:03.391Z,74.63
2018-04-12T18:34:37.004Z,74.66
2018-04-12T18:37:10.708Z,74.88
2018-04-12T18:39:45.295Z,75.11
2018-04-12T18:42:19.047Z,75.26
2018-04-12T18:44:52.676Z,75.24
2018-04-12T18:47:26.423Z,74.94
2018-04-12T18:50:00.004Z,75.24
2018-04-12T18:52:33.752Z,74.97
2018-04-12T18:55:07.610Z,74.70
2018-04-12T18:57:41.111Z,74.55
2018-04-12T19:00:14.675Z,74.45
2018-04-12T19:02:48.422Z,74.24
2018-04-12T19:05:21.986Z,74.11
2018-04-12T19:07:55.609Z,74.14
2018-04-12T19:10:29.911Z,74.25
2018-04-12T19:13:03.676Z,74.23
2018-04-12T19:15:37.383Z,74.34
2018-04-12T19:18:11.035Z,74.14
2018-04-12T19:20:44.788Z,74.06
2018-04-12T19:23:18.582Z,74.12
2018-04-12T19:25:52.197Z,74.29
2018-04-12T19:28:25.868Z,74.26
2018-04-12T19:30:59.731Z,74.43
2018-04-12T19:33:35.067Z,74.26
2018-04-12T19:36:08.582Z,74.19
2018-04-12T19:38:42.301Z,74.36
2018-04-12T19:41:15.958Z,74.28
2018-04-12T19:43:49.633Z,74.19
2018-04-12T19:46:23.204Z,74.35
2018-04-12T19:48:56.927Z,74.26
2018-04-12T19:51:30.475Z,74.30
2018-04-12T19:54:04.129Z,74.36
2018-04-12T19:56:37.675Z,74.36
2018-04-12T19:59:11.488Z,74.43
2018-04-12T20:01:45.102Z,74.33
2018-04-12T20:04:19.691Z,74.36
2018-04-12T20:06:53.471Z,74.44
2018-04-12T20:09:27.103Z,74.71
2018-04-12T20:12:00.649Z,74.65
2018-04-12T20:14:34.353Z,74.77
2018-04-12T20:17:09.742Z,74.73
2018-04-12T20:19:43.698Z,74.84
2018-04-12T20:22:17.333Z,75.25
2018-04-12T20:24:51.051Z,75.10
2018-04-12T20:27:24.575Z,75.25
2018-04-12T20:29:58.171Z,75.30
2018-04-12T20:32:31.754Z,75.18
2018-04-12T20:35:05.343Z,75.17
2018-04-12T20:37:38.884Z,75.06
2018-04-12T20:40:12.395Z,75.03
2018-04-12T20:42:46.444Z,74.85
2018-04-12T20:45:20.182Z,74.98
2018-04-12T20:47:53.886Z,74.90
2018-04-12T20:50:27.422Z,74.93
2018-04-12T20:53:02.171Z,74.95
2018-04-12T20:55:35.855Z,74.88
2018-04-12T20:58:09.398Z,74.95
2018-04-12T21:00:42.882Z,74.86
2018-04-12T21:03:16.432Z,74.83
2018-04-12T21:05:50.008Z,74.85
2018-04-12T21:08:23.585Z,75.08
2018-04-12T21:10:57.207Z,75.21
2018-04-12T21:13:30.858Z,75.31
2018-04-12T21:16:05.479Z,75.65
2018-04-12T21:18:40.240Z,75.94
2018-04-12T21:21:14.014Z,76.16
2018-04-12T21:23:48.331Z,76.21
2018-04-12T21:26:22.082Z,76.07
2018-04-12T21:28:55.828Z,75.93
2018-04-12T21:31:29.335Z,76.02
2018-04-12T21:34:02.935Z,76.10
2018-04-12T21:36:36.511Z,76.19
2018-04-12T21:39:10.247Z,76.29
2018-04-12T21:41:43.807Z,76.36
2018-04-12T21:44:17.428Z,76.32
2018-04-12T21:46:51.314Z,76.32
2018-04-12T21:49:24.974Z,76.29
2018-04-12T21:51:58.746Z,76.28
2018-04-12T21:54:32.657Z,76.25
2018-04-12T21:57:07.371Z,76.18
2018-04-12T21:59:40.982Z,76.15
2018-04-12T22:02:14.705Z,76.01
2018-04-12T22:04:48.494Z,75.95
2018-04-12T22:07:22.146Z,76.13
2018-04-12T22:09:55.978Z,76.31
2018-04-12T22:12:29.491Z,76.49
2018-04-12T22:15:03.115Z,76.55
2018-04-12T22:17:36.906Z,76.53
2018-04-12T22:20:10.598Z,76.51
2018-04-12T22:22:44.146Z,76.45
2018-04-12T22:25:17.837Z,76.49
2018-04-12T22:27:51.475Z,76.47
2018-04-12T22:30:25.092Z,76.48
2018-04-12T22:32:58.670Z,76.50
2018-04-12T22:35:32.366Z,76.50
2018-04-12T22:38:06.901Z,76.61
2018-04-12T22:40:40.423Z,76.69
2018-04-12T22:43:14.028Z,76.86
2018-04-12T22:45:48.763Z,76.92
2018-04-12T22:48:22.520Z,77.08
2018-04-12T22:50:59.010Z,77.18
2018-04-12T22:53:33.585Z,77.22
2018-04-12T22:56:07.825Z,77.27
2018-04-12T22:58:41.767Z,77.33
2018-04-12T23:01:16.269Z,77.43
2018-04-12T23:03:50.040Z,77.58
2018-04-12T23:06:23.775Z,77.48
2018-04-12T23:08:57.345Z,77.54
2018-04-12T23:11:31.095Z,77.67
2018-04-12T23:14:04.693Z,77.76
2018-04-12T23:16:38.338Z,77.82
2018-04-12T23:19:12.106Z,77.84
2018-04-12T23:21:45.892Z,77.96
2018-04-12T23:24:19.483Z,78.00
2018-04-12T23:26:53.261Z,77.91
2018-04-12T23:29:27.829Z,77.76
2018-04-12T23:32:01.495Z,77.62
2018-04-12T23:34:35.155Z,77.51
2018-04-12T23:37:08.721Z,77.38
2018-04-12T23:39:42.365Z,77.42
2018-04-12T23:42:16.885Z,77.55
2018-04-12T23:44:50.368Z,77.70
2018-04-12T23:47:24.954Z,77.71
2018-04-12T23:49:58.603Z,77.65
2018-04-12T23:52:32.178Z,77.42
2018-04-12T23:55:07.267Z,77.39
2018-04-12T23:57:41.198Z,77.24
